Time;durP1;ratioP1;P1;durP2;ratioP2;P2;SDS_P1;SDS_P2;PMS_P1;PMS_P2;Temp;Humidity;BMP_temperature;BMP_pressure;BME280_temperature;BME280_humidity;BME280_pressure;Samples;Min_cycle;Max_cycle;Signal;HPM_P1;HPM_P2
2022/07/14 00:00:46;;;;;;;2.12;1.92;;;;;;;14.84;100.00;98494.33;1740278;82;21053;-72
2022/07/14 00:03:13;;;;;;;3.22;2.37;;;;;;;14.83;100.00;98487.76;1740105;82;21048;-72
2022/07/14 00:05:41;;;;;;;3.05;2.25;;;;;;;14.80;100.00;98492.61;1715919;82;21491;-73
2022/07/14 00:08:08;;;;;;;4.92;2.37;;;;;;;14.80;100.00;98493.97;1740185;82;21573;-73
2022/07/14 00:10:35;;;;;;;5.10;2.37;;;;;;;14.81;100.00;98482.00;1788795;77;20970;-74
2022/07/14 00:13:02;;;;;;;6.22;2.50;;;;;;;14.83;100.00;98479.59;1863515;77;21018;-71
2022/07/14 00:15:31;;;;;;;3.10;2.42;;;;;;;14.81;100.00;98466.22;1865144;77;21490;-74
2022/07/14 00:17:59;;;;;;;3.37;2.42;;;;;;;14.79;100.00;98458.84;1864953;77;21475;-73
2022/07/14 00:20:27;;;;;;;3.27;2.35;;;;;;;14.79;100.00;98450.13;1865116;77;21013;-73
2022/07/14 00:22:56;;;;;;;2.47;2.25;;;;;;;14.80;100.00;98442.78;1864860;77;21013;-75
2022/07/14 00:25:25;;;;;;;4.58;2.70;;;;;;;14.78;100.00;98436.76;1864671;77;20989;-75
2022/07/14 00:27:52;;;;;;;4.33;2.70;;;;;;;14.78;100.00;98436.76;1788603;80;21081;-73
2022/07/14 00:30:21;;;;;;;3.75;2.80;;;;;;;14.75;100.00;98435.36;1786730;80;21029;-73
2022/07/14 00:32:48;;;;;;;3.90;2.75;;;;;;;14.74;100.00;98425.52;1789030;80;21041;-74
2022/07/14 00:35:15;;;;;;;6.15;2.70;;;;;;;14.76;100.00;98422.57;1788747;80;21535;-74
2022/07/14 00:37:43;;;;;;;5.17;2.90;;;;;;;14.73;100.00;98415.73;1788769;80;21001;-73
2022/07/14 00:40:11;;;;;;;3.35;3.05;;;;;;;14.77;100.00;98404.66;1788790;79;21018;-74
2022/07/14 00:42:43;;;;;;;6.92;3.40;;;;;;;14.77;100.00;98391.05;1788835;80;21010;-73
2022/07/14 00:45:12;;;;;;;4.42;3.42;;;;;;;14.78;100.00;98390.00;1788864;80;21074;-74
2022/07/14 00:47:40;;;;;;;4.45;3.00;;;;;;;14.77;100.00;98376.63;1763082;80;21057;-74
2022/07/14 00:50:09;;;;;;;5.03;3.10;;;;;;;14.75;100.00;98368.70;1788860;80;21061;-74
2022/07/14 00:52:36;;;;;;;5.00;3.00;;;;;;;14.76;100.00;98368.16;1763452;80;21012;-74
2022/07/14 00:55:04;;;;;;;4.47;2.87;;;;;;;14.72;100.00;98322.92;1788743;80;20990;-74
2022/07/14 00:57:31;;;;;;;4.22;2.77;;;;;;;14.72;100.00;98322.92;1790004;80;20970;-77
2022/07/14 00:59:58;;;;;;;3.95;3.10;;;;;;;14.70;100.00;98318.26;1789763;80;21029;-75
2022/07/14 01:02:25;;;;;;;4.87;3.05;;;;;;;14.67;100.00;98313.29;1788981;80;20994;-75
2022/07/14 01:04:53;;;;;;;6.22;3.52;;;;;;;14.65;100.00;98309.17;1789528;80;21029;-76
2022/07/14 01:07:21;;;;;;;5.42;3.40;;;;;;;14.64;100.00;98304.23;1788475;79;21556;-74
2022/07/14 01:09:48;;;;;;;6.37;3.40;;;;;;;14.63;100.00;98291.73;1788787;80;21033;-75
2022/07/14 01:12:17;;;;;;;4.78;3.52;;;;;;;14.62;100.00;98290.06;1804320;79;21002;-75
2022/07/14 01:14:45;;;;;;;5.75;3.30;;;;;;;14.59;100.00;98272.34;1821783;79;21010;-75
2022/07/14 01:17:13;;;;;;;4.87;3.25;;;;;;;14.57;100.00;98255.41;1823427;77;20982;-74
2022/07/14 01:19:41;;;;;;;7.72;3.40;;;;;;;14.56;100.00;98252.38;1821183;79;21049;-73
2022/07/14 01:22:09;;;;;;;5.00;3.10;;;;;;;14.57;100.00;98245.04;1821002;79;21065;-73
2022/07/14 01:24:37;;;;;;;5.15;3.10;;;;;;;14.56;100.00;98233.89;1804489;78;21016;-74
2022/07/14 01:27:05;;;;;;;4.17;3.30;;;;;;;14.56;100.00;98224.38;1851465;77;21040;-73
2022/07/14 01:29:35;;;;;;;4.90;3.67;;;;;;;14.56;100.00;98220.29;1832293;77;21020;-74
2022/07/14 01:32:04;;;;;;;4.80;3.50;;;;;;;14.57;100.00;98217.84;1861433;77;21002;-72
2022/07/14 01:34:34;;;;;;;5.50;3.55;;;;;;;14.58;100.00;98214.10;1861074;77;21102;-74
2022/07/14 01:37:01;;;;;;;3.62;3.33;;;;;;;14.58;100.00;98214.10;1832745;77;20980;-73
2022/07/14 01:39:28;;;;;;;6.78;3.25;;;;;;;14.57;100.00;98201.02;1861147;77;21047;-72
2022/07/14 01:41:56;;;;;;;3.70;3.08;;;;;;;14.59;100.00;98188.02;1861218;77;21039;-72
2022/07/14 01:44:23;;;;;;;7.28;3.98;;;;;;;14.60;100.00;98181.50;1832806;77;21055;-73
2022/07/14 01:46:51;;;;;;;3.80;3.45;;;;;;;14.61;100.00;98147.80;1860933;77;21004;-73
2022/07/14 01:49:19;;;;;;;5.83;3.67;;;;;;;14.61;100.00;98123.88;1833087;77;20968;-72
2022/07/14 01:51:47;;;;;;;7.33;3.72;;;;;;;14.61;100.00;98123.88;1832505;77;21043;-74
2022/07/14 01:54:15;;;;;;;6.35;3.80;;;;;;;14.65;100.00;98118.77;1861195;77;20988;-73
2022/07/14 01:56:43;;;;;;;5.15;3.52;;;;;;;14.65;100.00;98111.42;1861093;77;20995;-72
2022/07/14 01:59:12;;;;;;;7.80;3.80;;;;;;;14.70;100.00;98097.91;1860879;77;20976;-73
2022/07/14 02:01:40;;;;;;;4.05;3.60;;;;;;;14.70;100.00;98097.91;1860960;77;21011;-71
2022/07/14 02:04:15;;;;;;;3.67;3.33;;;;;;;14.72;100.00;98085.44;1832543;77;21012;-71
2022/07/14 02:06:49;;;;;;;4.50;3.50;;;;;;;14.75;100.00;98084.41;1832667;77;20971;-73
2022/07/14 02:12:16;;;;;;;7.22;3.98;;;;;;;14.79;100.00;98080.66;1769756;80;21001;-73
2022/07/14 02:14:43;;;;;;;5.95;4.08;;;;;;;14.80;100.00;98083.65;1772989;81;21103;-74
2022/07/14 02:17:12;;;;;;;9.88;3.75;;;;;;;14.76;100.00;98073.80;1772872;81;20962;-73
2022/07/14 02:19:39;;;;;;;5.78;3.92;;;;;;;14.77;100.00;98074.09;1772783;81;21018;-73
2022/07/14 02:22:06;;;;;;;7.17;4.15;;;;;;;14.80;100.00;98072.77;1772912;81;21001;-73
2022/07/14 02:24:33;;;;;;;7.80;4.17;;;;;;;14.77;100.00;98071.38;1772774;81;21053;-73
2022/07/14 02:27:01;;;;;;;8.10;3.90;;;;;;;14.78;100.00;98071.68;1763318;81;21110;-74
2022/07/14 02:29:29;;;;;;;6.75;4.22;;;;;;;14.78;100.00;98071.68;1754858;82;21109;-72
2022/07/14 02:31:56;;;;;;;5.08;3.80;;;;;;;14.75;100.00;98053.12;1754939;82;21052;-73
2022/07/14 02:34:24;;;;;;;4.62;3.75;;;;;;;14.79;100.00;98054.81;1754910;82;21035;-73
2022/07/14 02:36:54;;;;;;;4.58;3.85;;;;;;;14.80;100.00;98061.88;1754670;82;21016;-74
2022/07/14 02:39:22;;;;;;;7.53;3.85;;;;;;;14.81;100.00;98057.56;1730186;82;21032;-73
2022/07/14 02:41:49;;;;;;;5.15;3.72;;;;;;;14.85;100.00;98061.16;1730218;82;21588;-74
2022/07/14 02:44:16;;;;;;;6.08;4.00;;;;;;;14.87;100.00;98054.92;1730191;82;21004;-73
2022/07/14 02:46:46;;;;;;;5.87;4.05;;;;;;;14.87;100.00;98054.92;1730192;82;21036;-72
2022/07/14 02:49:15;;;;;;;4.75;3.85;;;;;;;14.86;100.00;98039.69;1730155;82;21063;-75
2022/07/14 02:51:44;;;;;;;7.28;3.87;;;;;;;14.86;100.00;98039.69;1754867;82;21067;-73
2022/07/14 02:54:11;;;;;;;5.45;3.77;;;;;;;14.88;100.00;98040.27;1755118;82;20996;-73
2022/07/14 02:56:39;;;;;;;5.90;3.75;;;;;;;14.88;100.00;98037.00;1754753;82;21619;-73
2022/07/14 02:59:07;;;;;;;6.28;4.00;;;;;;;14.90;100.00;98039.47;1754800;82;21509;-73
2022/07/14 03:01:36;;;;;;;8.43;4.05;;;;;;;14.91;100.00;98028.34;1756388;82;21535;-74
2022/07/14 03:04:06;;;;;;;5.83;4.00;;;;;;;14.91;100.00;97917.30;1807758;77;21007;-74
2022/07/14 03:06:34;;;;;;;6.17;4.42;;;;;;;14.93;100.00;97918.70;1854413;77;21019;-73
2022/07/14 03:09:04;;;;;;;5.85;4.12;;;;;;;14.95;100.00;97893.97;1854078;77;20976;-72
2022/07/14 03:11:32;;;;;;;5.08;3.95;;;;;;;14.95;100.00;97893.97;1850526;77;21016;-72
2022/07/14 03:14:01;;;;;;;5.05;4.10;;;;;;;14.96;100.00;97819.41;1817195;78;21038;-72
2022/07/14 03:16:30;;;;;;;4.95;4.10;;;;;;;14.99;100.00;97798.50;1832900;78;21016;-74
2022/07/14 03:18:59;;;;;;;6.42;4.10;;;;;;;15.03;100.00;97790.65;1833153;78;20977;-72
2022/07/14 03:21:27;;;;;;;4.55;4.08;;;;;;;15.06;100.00;97787.42;1832866;78;21007;-73
2022/07/14 03:23:56;;;;;;;5.37;4.37;;;;;;;15.11;100.00;97781.49;1833172;78;20980;-73
2022/07/14 03:26:25;;;;;;;6.72;4.30;;;;;;;15.13;100.00;97774.44;1838464;77;21008;-72
2022/07/14 03:28:54;;;;;;;7.90;4.33;;;;;;;15.12;100.00;97772.27;1860934;77;21012;-72
2022/07/14 03:31:23;;;;;;;6.50;4.03;;;;;;;15.16;100.00;97777.47;1861109;77;20940;-72
2022/07/14 03:33:51;;;;;;;5.35;4.10;;;;;;;15.19;100.00;97778.33;1861092;77;20976;-74
2022/07/14 03:36:21;;;;;;;6.22;3.95;;;;;;;15.26;100.00;97774.56;1861246;77;21015;-72
2022/07/14 03:38:49;;;;;;;5.03;4.25;;;;;;;15.26;100.00;97774.56;1861236;77;21062;-72
2022/07/14 03:41:17;;;;;;;6.85;4.22;;;;;;;15.34;100.00;97776.83;1832861;77;21492;-72
2022/07/14 03:43:46;;;;;;;6.12;4.62;;;;;;;15.34;100.00;97776.83;1861048;77;21015;-72
2022/07/14 03:46:15;;;;;;;4.78;4.28;;;;;;;15.35;100.00;97773.86;1833310;77;21030;-71
2022/07/14 03:48:44;;;;;;;7.67;4.70;;;;;;;15.39;100.00;97774.16;1857247;77;21449;-74
2022/07/14 03:51:12;;;;;;;6.33;4.78;;;;;;;15.41;100.00;97776.08;1832945;77;21039;-72
2022/07/14 03:53:42;;;;;;;8.60;4.50;;;;;;;15.49;100.00;97776.98;1861474;77;21453;-73
2022/07/14 03:56:09;;;;;;;4.85;4.35;;;;;;;15.53;100.00;97772.66;1861250;77;21034;-73
2022/07/14 03:58:39;;;;;;;6.35;4.70;;;;;;;15.57;100.00;97781.95;1766955;81;21076;-72
2022/07/14 04:01:06;;;;;;;7.30;4.85;;;;;;;15.62;100.00;97783.91;1766732;81;21570;-71
2022/07/14 04:03:36;;;;;;;6.33;4.80;;;;;;;15.65;100.00;97786.64;1767037;81;21066;-71
2022/07/14 04:06:03;;;;;;;6.17;4.80;;;;;;;15.67;100.00;97781.23;1766803;81;21022;-73
2022/07/14 04:08:31;;;;;;;5.97;4.58;;;;;;;15.69;100.00;97785.88;1766690;81;21045;-73
2022/07/14 04:11:00;;;;;;;7.80;5.28;;;;;;;15.68;100.00;97788.85;1766990;81;20974;-73
2022/07/14 04:13:29;;;;;;;5.10;4.58;;;;;;;15.68;100.00;97791.58;1772315;81;21104;-72
2022/07/14 04:15:56;;;;;;;5.97;5.03;;;;;;;15.69;100.00;97800.86;1772950;79;21041;-73
2022/07/14 04:18:24;;;;;;;6.22;4.70;;;;;;;15.72;100.00;97804.95;1772982;81;21006;-72
2022/07/14 04:20:54;;;;;;;8.35;5.33;;;;;;;15.73;100.00;97801.16;1772756;81;21021;-73
2022/07/14 04:23:23;;;;;;;8.33;4.90;;;;;;;15.74;100.00;97808.23;1772585;81;21076;-72
2022/07/14 04:25:51;;;;;;;6.12;5.00;;;;;;;15.74;100.00;97812.32;1772937;81;21507;-73
2022/07/14 04:28:21;;;;;;;7.72;5.30;;;;;;;15.74;100.00;97813.20;1765112;81;21581;-73
2022/07/14 04:30:48;;;;;;;6.62;5.30;;;;;;;15.81;100.00;97811.63;1764310;81;21092;-71
2022/07/14 04:33:20;;;;;;;6.20;5.03;;;;;;;15.90;100.00;97823.69;1764685;81;21099;-73
2022/07/14 04:35:48;;;;;;;7.00;6.05;;;;;;;16.02;100.00;97818.03;1800556;77;21065;-73
2022/07/14 04:38:16;;;;;;;6.35;5.67;;;;;;;16.12;100.00;97823.58;1858681;77;21487;-72
2022/07/14 04:40:49;;;;;;;7.35;5.50;;;;;;;16.14;100.00;97820.04;1853794;77;21010;-73
2022/07/14 04:43:17;;;;;;;9.35;5.30;;;;;;;16.17;100.00;97836.98;1858416;77;21036;-73
2022/07/14 04:45:45;;;;;;;7.25;5.37;;;;;;;16.20;100.00;97841.89;1858282;77;21045;-73
2022/07/14 04:48:15;;;;;;;7.45;5.37;;;;;;;16.23;100.00;97854.46;1858249;77;21006;-73
2022/07/14 04:53:27;;;;;;;7.50;5.53;;;;;;;16.38;100.00;97873.38;1859941;77;20947;-73
2022/07/14 04:55:59;;;;;;;8.03;5.35;;;;;;;16.44;100.00;97878.61;1787380;80;20975;-72
2022/07/14 04:58:30;;;;;;;9.53;5.50;;;;;;;16.50;100.00;97890.37;1726309;83;21004;-72
2022/07/14 05:00:59;;;;;;;8.95;5.30;;;;;;;16.50;100.00;97899.92;1726515;83;21091;-72
2022/07/14 05:03:27;;;;;;;6.05;5.20;;;;;;;16.52;100.00;97914.15;1726090;83;21012;-72
2022/07/14 05:05:55;;;;;;;8.33;5.33;;;;;;;16.54;100.00;97932.95;1726475;83;21033;-73
2022/07/14 05:08:23;;;;;;;9.50;6.35;;;;;;;16.53;100.00;97939.52;1680268;84;21570;-71
2022/07/14 05:10:51;;;;;;;19.80;12.95;;;;;;;16.52;100.00;97946.89;1663245;86;21034;-74
2022/07/14 05:13:19;;;;;;;10.00;5.87;;;;;;;16.53;100.00;97956.70;1737808;82;21550;-73
2022/07/14 05:15:46;;;;;;;9.25;6.00;;;;;;;16.55;100.00;97965.44;1712787;84;21075;-74
2022/07/14 05:18:16;;;;;;;9.43;5.92;;;;;;;16.59;100.00;97980.74;1698165;84;21039;-71
2022/07/14 05:20:43;;;;;;;21.35;15.45;;;;;;;16.59;100.00;97987.56;1686515;84;21065;-71
2022/07/14 05:23:10;;;;;;;9.10;5.83;;;;;;;16.59;100.00;97999.32;1660570;85;21053;-72
2022/07/14 05:25:39;;;;;;;14.33;9.68;;;;;;;16.60;100.00;98001.50;1652838;87;21108;-73
2022/07/14 05:28:07;;;;;;;7.62;5.25;;;;;;;16.60;100.00;98009.13;1652565;85;21140;-73
2022/07/14 05:30:41;;;;;;;6.97;4.78;;;;;;;16.66;100.00;98017.66;1652725;87;21139;-73
2022/07/14 05:33:09;;;;;;;8.30;4.60;;;;;;;16.76;100.00;98012.00;1652905;87;21133;-73
2022/07/14 05:35:38;;;;;;;6.95;4.92;;;;;;;16.91;100.00;98014.88;1652973;87;21204;-72
2022/07/14 05:38:05;;;;;;;7.00;4.50;;;;;;;17.11;100.00;98006.55;1652692;87;21069;-72
2022/07/14 05:40:33;;;;;;;7.22;4.35;;;;;;;17.33;100.00;98000.38;1653045;87;21057;-72
2022/07/14 05:43:02;;;;;;;7.37;4.50;;;;;;;17.52;100.00;97995.85;1654125;85;21597;-72
2022/07/14 05:45:29;;;;;;;7.25;4.60;;;;;;;17.64;100.00;98000.55;1651899;86;21112;-73
2022/07/14 05:47:56;;;;;;;6.67;4.55;;;;;;;17.76;100.00;98012.60;1650925;87;21049;-74
2022/07/14 05:50:25;;;;;;;6.42;4.60;;;;;;;17.84;100.00;98023.84;1664793;85;21017;-74
2022/07/14 05:52:52;;;;;;;9.40;5.22;;;;;;;17.97;100.00;98039.51;1707180;83;21630;-75
2022/07/14 05:55:21;;;;;;;11.05;6.33;;;;;;;18.09;100.00;98063.34;1778663;78;21049;-75
2022/07/14 05:57:49;;;;;;;4.90;3.65;;;;;;;18.24;100.00;98084.47;1830124;78;21009;-73
2022/07/14 06:00:16;;;;;;;6.37;4.00;;;;;;;18.33;100.00;98105.29;1830127;78;21479;-73
2022/07/14 06:02:45;;;;;;;5.67;3.87;;;;;;;18.33;100.00;98127.98;1829996;78;21053;-73
2022/07/14 06:05:13;;;;;;;4.37;3.67;;;;;;;18.31;100.00;98156.16;1825170;78;21063;-73
2022/07/14 06:07:41;;;;;;;3.95;3.62;;;;;;;18.31;100.00;98192.25;1800389;78;21670;-74
2022/07/14 06:10:10;;;;;;;11.33;5.53;;;;;;;18.32;100.00;98225.37;1779521;79;20926;-74
2022/07/14 06:12:40;;;;;;;7.25;4.72;;;;;;;18.27;100.00;98261.72;1786230;78;21003;-74
2022/07/14 06:15:10;;;;;;;4.75;3.85;;;;;;;18.26;100.00;98306.59;1795270;80;21527;-69
2022/07/14 06:17:38;;;;;;;4.08;3.60;;;;;;;18.24;100.00;98346.23;1829425;78;21559;-74
2022/07/14 06:20:07;;;;;;;4.40;3.50;;;;;;;18.22;100.00;98372.51;1799608;78;21499;-71
2022/07/14 06:22:35;;;;;;;5.28;3.62;;;;;;;18.19;100.00;98390.80;1799483;78;20998;-73
2022/07/14 06:25:03;;;;;;;8.05;3.60;;;;;;;18.17;100.00;98399.27;1829514;78;21002;-71
2022/07/14 06:27:32;;;;;;;7.35;3.65;;;;;;;18.19;100.00;98402.56;1798002;78;21566;-71
2022/07/14 06:30:05;;;;;;;7.63;4.20;;;;;;;18.25;100.00;98404.79;1792222;79;21062;-75
2022/07/14 06:32:33;;;;;;;8.28;3.70;;;;;;;18.33;100.00;98407.05;1789243;79;21006;-77
2022/07/14 06:35:00;;;;;;;5.00;3.70;;;;;;;18.36;100.00;98422.11;1814139;79;21015;-76
2022/07/14 06:37:28;;;;;;;5.05;3.37;;;;;;;18.41;100.00;98427.62;1814966;79;21064;-76
2022/07/14 06:39:56;;;;;;;6.25;3.30;;;;;;;18.49;100.00;98431.26;1817478;79;21460;-75
2022/07/14 06:42:24;;;;;;;4.50;3.50;;;;;;;18.55;100.00;98439.77;1814937;79;21535;-77
2022/07/14 06:44:53;;;;;;;4.80;3.45;;;;;;;18.61;100.00;98447.50;1789906;79;21559;-77
2022/07/14 06:47:20;;;;;;;5.45;3.60;;;;;;;18.74;100.00;98458.54;1789470;79;21091;-77
2022/07/14 06:49:47;;;;;;;4.58;3.22;;;;;;;18.98;100.00;98452.14;1814549;79;21045;-77
2022/07/14 06:52:15;;;;;;;5.87;3.12;;;;;;;19.25;100.00;98469.02;1813961;79;21050;-76
2022/07/14 06:54:43;;;;;;;2.95;2.75;;;;;;;19.39;100.00;98492.11;1814901;79;21046;-76
2022/07/14 06:57:10;;;;;;;5.58;2.92;;;;;;;19.43;100.00;98518.44;1814657;79;21061;-77
2022/07/14 06:59:37;;;;;;;6.28;4.05;;;;;;;19.45;100.00;98546.41;1814764;79;21034;-75
2022/07/14 07:02:04;;;;;;;8.98;5.75;;;;;;;19.46;100.00;98568.06;1789556;79;21456;-75
2022/07/14 07:04:31;;;;;;;4.35;3.27;;;;;;;19.49;100.00;98580.41;1789459;79;20968;-73
2022/07/14 07:06:59;;;;;;;3.77;3.10;;;;;;;19.53;100.00;98590.59;1814960;79;21016;-77
2022/07/14 07:09:26;;;;;;;4.35;3.02;;;;;;;19.53;100.00;98607.59;1789385;79;21014;-75
2022/07/14 07:11:54;;;;;;;3.22;2.92;;;;;;;19.41;100.00;98624.22;1807832;79;21538;-75
2022/07/14 07:14:22;;;;;;;5.17;3.20;;;;;;;19.23;100.00;98641.91;1771339;80;21053;-76
2022/07/14 07:16:50;;;;;;;5.37;2.72;;;;;;;19.06;100.00;98648.88;1797262;80;20974;-76
2022/07/14 07:19:17;;;;;;;4.53;3.10;;;;;;;18.96;100.00;98655.10;1771237;78;21035;-76
2022/07/14 07:21:46;;;;;;;4.97;3.10;;;;;;;18.94;100.00;98649.58;1798054;80;21029;-76
2022/07/14 07:24:14;;;;;;;5.47;3.33;;;;;;;18.99;100.00;98652.92;1745468;80;21650;-74
2022/07/14 07:26:43;;;;;;;6.50;3.10;;;;;;;19.05;100.00;98642.28;1798388;80;20989;-76
2022/07/14 07:29:11;;;;;;;7.03;3.20;;;;;;;19.08;100.00;98663.13;1797959;79;21119;-75
2022/07/14 07:31:39;;;;;;;6.25;2.90;;;;;;;19.12;100.00;98662.91;1803326;79;21044;-77
2022/07/14 07:34:07;;;;;;;8.70;3.27;;;;;;;19.24;100.00;98655.05;1802418;79;21029;-76
2022/07/14 07:36:35;;;;;;;4.33;3.10;;;;;;;19.36;100.00;98662.55;1802813;79;21047;-77
2022/07/14 07:39:03;;;;;;;3.17;2.87;;;;;;;19.44;100.00;98667.55;1802408;79;21298;-75
2022/07/14 07:41:30;;;;;;;3.92;3.25;;;;;;;19.52;100.00;98666.23;1802984;79;21036;-77
2022/07/14 07:43:58;;;;;;;3.50;3.20;;;;;;;19.73;100.00;98666.67;1771655;79;21087;-72
2022/07/14 07:46:26;;;;;;;5.87;3.15;;;;;;;20.13;100.00;98657.55;1772331;79;21029;-71
2022/07/14 07:48:53;;;;;;;5.12;2.87;;;;;;;20.60;100.00;98659.37;1803182;79;21494;-69
2022/07/14 07:51:20;;;;;;;2.55;2.35;;;;;;;21.12;100.00;98669.93;1803759;79;21470;-69
2022/07/14 07:53:47;;;;;;;6.25;2.72;;;;;;;21.50;100.00;98687.59;1772689;79;20997;-69
2022/07/14 07:56:14;;;;;;;3.65;2.70;;;;;;;21.64;100.00;98720.83;1802670;79;21028;-72
2022/07/14 07:58:41;;;;;;;27.35;21.55;;;;;;;21.66;100.00;98751.66;1804120;78;21103;-70
2022/07/14 08:01:09;;;;;;;27.48;18.73;;;;;;;21.54;100.00;98791.24;1816395;78;21482;-70
2022/07/14 08:03:36;;;;;;;11.73;9.58;;;;;;;21.45;100.00;98806.61;1815033;78;21037;-70
2022/07/14 08:06:03;;;;;;;35.58;29.12;;;;;;;21.40;100.00;98821.72;1811475;78;20968;-71
2022/07/14 08:08:32;;;;;;;12.28;4.72;;;;;;;21.33;100.00;98825.28;1771270;79;21035;-72
2022/07/14 08:10:59;;;;;;;3.65;3.00;;;;;;;21.15;100.00;98853.53;1803146;79;21038;-72
2022/07/14 08:13:28;;;;;;;5.72;3.30;;;;;;;20.90;100.00;98864.44;1803527;79;21528;-72
2022/07/14 08:15:58;;;;;;;4.12;3.00;;;;;;;20.67;100.00;98871.45;1803526;79;21030;-72
2022/07/14 08:18:25;;;;;;;5.53;3.25;;;;;;;20.44;100.00;98869.91;1802854;79;21101;-74
2022/07/14 08:20:54;;;;;;;5.67;3.05;;;;;;;20.21;100.00;98858.77;1802689;79;21074;-71
2022/07/14 08:23:22;;;;;;;5.20;2.92;;;;;;;19.96;100.00;98850.34;1802978;79;21086;-69
2022/07/14 08:25:50;;;;;;;7.55;3.05;;;;;;;19.78;100.00;98848.80;1804843;79;21047;-70
2022/07/14 08:28:18;;;;;;;5.30;3.42;;;;;;;19.78;100.00;98829.59;1817669;78;21042;-71
2022/07/14 08:30:46;;;;;;;5.20;3.40;;;;;;;20.03;100.00;98816.11;1810390;78;21063;-71
2022/07/14 08:33:13;;;;;;;7.97;3.87;;;;;;;20.29;100.00;98822.60;1797944;80;21020;-71
2022/07/14 08:35:42;;;;;;;4.08;3.22;;;;;;;20.47;100.00;98826.01;1797777;80;21036;-72
2022/07/14 08:38:10;;;;;;;5.08;3.10;;;;;;;20.55;100.00;98835.66;1797160;80;21063;-70
2022/07/14 08:40:37;;;;;;;3.08;2.60;;;;;;;20.49;100.00;98826.56;1797387;80;21046;-71
2022/07/14 08:43:04;;;;;;;4.60;2.90;;;;;;;20.44;100.00;98821.05;1797490;80;21071;-72
2022/07/14 08:45:35;;;;;;;4.00;2.58;;;;;;;20.35;100.00;98815.78;1796862;80;21528;-71
2022/07/14 08:48:04;;;;;;;4.60;2.80;;;;;;;20.23;100.00;98808.55;1797314;80;21015;-72
2022/07/14 08:50:31;;;;;;;3.10;2.75;;;;;;;20.17;100.00;98796.42;1796885;80;21043;-71
2022/07/14 08:52:59;;;;;;;2.77;2.58;;;;;;;20.13;100.00;98800.24;1770703;80;21063;-70
2022/07/14 08:55:26;;;;;;;2.80;2.60;;;;;;;20.02;100.00;98798.53;1746029;80;21039;-71
2022/07/14 08:57:53;;;;;;;4.45;2.60;;;;;;;19.90;100.00;98798.19;1797470;80;20984;-71
2022/07/14 09:00:20;;;;;;;4.35;2.80;;;;;;;19.90;100.00;98778.12;1797870;80;21090;-73
2022/07/14 09:02:52;;;;;;;3.10;2.90;;;;;;;19.95;100.00;98760.89;1797757;80;21039;-70
2022/07/14 09:05:19;;;;;;;3.30;2.80;;;;;;;20.04;100.00;98745.06;1798909;79;21046;-72
2022/07/14 09:07:46;;;;;;;3.02;2.80;;;;;;;20.16;100.00;98735.23;1784398;79;20996;-72
2022/07/14 09:10:17;;;;;;;4.22;2.90;;;;;;;20.34;100.00;98723.53;1759370;80;21033;-72
2022/07/14 09:12:45;;;;;;;3.42;2.77;;;;;;;20.52;100.00;98723.60;1783560;80;21051;-73
2022/07/14 09:18:02;;;;;;;3.20;2.70;;;;;;;20.79;100.00;98733.09;1791238;79;21056;-73
2022/07/14 09:20:32;;;;;;;4.62;2.90;;;;;;;20.68;100.00;98761.03;1739329;82;21073;-70
2022/07/14 09:23:01;;;;;;;4.28;2.80;;;;;;;20.48;100.00;98778.22;1738279;82;21057;-71
2022/07/14 09:25:29;;;;;;;7.05;4.40;;;;;;;20.27;100.00;98795.97;1714618;82;21005;-71
2022/07/14 09:27:56;;;;;;;4.95;3.25;;;;;;;20.03;100.00;98797.45;1751210;81;20967;-71
2022/07/14 09:30:24;;;;;;;14.25;7.72;;;;;;;19.78;100.00;98807.66;1755068;80;21072;-70
2022/07/14 09:32:56;;;;;;;5.60;3.85;;;;;;;19.52;100.00;98799.19;1773737;81;21251;-71
2022/07/14 09:35:37;;;;;;;7.22;4.10;;;;;;;19.31;100.00;98798.98;1772459;81;21052;-70
2022/07/14 09:38:20;;;;;;;9.15;4.47;;;;;;;19.14;100.00;98785.91;1763847;81;21022;-70
2022/07/14 09:40:47;;;;;;;11.20;4.50;;;;;;;18.99;100.00;98773.45;1757666;81;21021;-71
2022/07/14 09:43:15;;;;;;;11.73;5.08;;;;;;;18.94;100.00;98772.28;1708857;82;21061;-70
2022/07/14 09:45:54;;;;;;;8.95;4.37;;;;;;;19.05;100.00;98754.59;1731257;81;21026;-70
2022/07/14 09:48:21;;;;;;;8.98;4.30;;;;;;;19.27;100.00;98738.94;1732676;82;21120;-71
2022/07/14 09:50:54;;;;;;;28.85;21.65;;;;;;;19.50;100.00;98722.69;1758322;81;21065;-72
2022/07/14 09:53:31;;;;;;;5.60;4.22;;;;;;;19.79;100.00;98714.16;1758781;81;21006;-69
2022/07/14 09:56:03;;;;;;;5.58;3.00;;;;;;;20.30;100.00;98693.05;1758294;81;21033;-70
2022/07/14 09:58:51;;;;;;;8.30;3.17;;;;;;;20.92;100.00;98694.09;1758060;82;21475;-70
2022/07/14 10:01:18;;;;;;;5.15;3.02;;;;;;;21.22;100.00;98719.98;1754561;81;21033;-72
2022/07/14 10:03:51;;;;;;;6.92;2.90;;;;;;;21.56;100.00;98727.72;1745232;81;21041;-70
2022/07/14 10:06:20;;;;;;;8.30;4.10;;;;;;;21.79;100.00;98762.09;1671285;85;21079;-69
2022/07/14 10:08:52;;;;;;;6.15;2.90;;;;;;;21.92;100.00;98797.84;1694764;85;21854;-72
2022/07/14 10:11:19;;;;;;;3.92;2.90;;;;;;;21.95;100.00;98824.83;1673548;84;21095;-70
2022/07/14 10:13:46;;;;;;;4.37;2.67;;;;;;;21.85;100.00;98861.44;1689405;84;21539;-70
2022/07/14 10:16:15;;;;;;;2.65;2.45;;;;;;;21.73;100.00;98871.31;1714399;82;21558;-71
2022/07/14 10:18:45;;;;;;;9.83;5.65;;;;;;;21.60;100.00;98883.67;1741150;82;21073;-71
2022/07/14 10:21:12;;;;;;;11.20;6.65;;;;;;;21.48;100.00;98902.87;1741191;82;21086;-71
2022/07/14 10:23:39;;;;;;;17.62;12.65;;;;;;;21.45;100.00;98900.09;1740130;82;21665;-71
2022/07/14 10:26:09;;;;;;;5.00;3.30;;;;;;;21.46;100.00;98913.32;1715770;82;21061;-74
2022/07/14 10:28:39;;;;;;;5.03;2.70;;;;;;;21.50;100.00;98918.02;1739576;82;21096;-76
2022/07/14 10:31:20;;;;;;;4.35;2.80;;;;;;;21.53;100.00;98920.77;1749704;82;21066;-74
2022/07/14 10:34:25;;;;;;;3.40;2.45;;;;;;;21.51;100.00;98942.22;1731375;81;21074;-69
2022/07/14 10:37:18;;;;;;;3.00;2.60;;;;;;;21.45;100.00;98959.78;1753203;81;21038;-71
2022/07/14 10:39:57;;;;;;;4.93;2.60;;;;;;;21.31;100.00;98980.05;1756153;82;21116;-72
2022/07/14 10:42:43;;;;;;;6.22;2.98;;;;;;;21.14;100.00;99009.09;1732156;83;21722;-72
2022/07/14 10:45:10;;;;;;;2.75;2.55;;;;;;;20.93;100.00;99025.98;1643914;87;21054;-72
2022/07/14 10:47:52;;;;;;;7.75;4.87;;;;;;;20.82;100.00;99024.56;1608237;87;21081;-70
2022/07/14 10:50:26;;;;;;;3.02;2.83;;;;;;;20.76;100.00;99024.78;1607649;88;21073;-69
2022/07/14 10:53:01;;;;;;;;;;;;;;;20.64;100.00;99031.27;1588482;90;21043;-71
2022/07/14 10:55:32;;;;;;;6.00;4.20;;;;;;;20.47;100.00;99036.87;1585722;90;20180;-70
2022/07/14 10:58:07;;;;;;;3.62;3.02;;;;;;;20.37;100.00;99027.16;1587752;90;21051;-70
2022/07/14 11:00:55;;;;;;;9.60;5.35;;;;;;;20.32;100.00;99027.11;1575545;90;21172;-71
2022/07/14 11:03:22;;;;;;;;;;;;;;;20.33;100.00;99009.56;1606580;88;22292;-70
2022/07/14 11:06:09;;;;;;;4.25;3.00;;;;;;;20.44;100.00;99000.87;1624062;87;20157;-70
2022/07/14 11:08:42;;;;;;;2.98;2.00;;;;;;;20.73;100.00;98990.41;1624555;88;21078;-69
2022/07/14 11:11:23;;;;;;;2.02;1.92;;;;;;;21.17;100.00;98982.45;1558709;89;21153;-70
2022/07/14 11:14:05;;;;;;;2.45;2.25;;;;;;;21.55;100.00;98979.92;1609818;89;21091;-70
2022/07/14 11:16:50;;;;;;;2.58;2.37;;;;;;;22.11;100.00;98973.72;1609966;89;21084;-70
2022/07/14 11:19:35;;;;;;;5.53;3.15;;;;;;;22.81;100.00;98983.43;1604709;88;21122;-74
2022/07/14 11:22:13;;;;;;;7.83;3.35;;;;;;;23.41;100.00;98994.06;1568450;90;22472;-70
2022/07/14 11:24:58;;;;;;;10.20;4.22;;;;;;;23.83;100.00;99011.29;1568864;91;21112;-71
2022/07/14 11:27:36;;;;;;;9.90;4.40;;;;;;;24.24;100.00;99017.42;1568951;91;21085;-70
2022/07/14 11:30:26;;;;;;;8.00;3.80;;;;;;;24.60;100.00;99042.61;1568517;91;21673;-70
2022/07/14 11:33:08;;;;;;;6.67;3.42;;;;;;;24.82;100.00;99069.25;1564312;92;21090;-71
2022/07/14 11:38:39;;;;;;;11.18;6.05;;;;;;;25.21;100.00;99085.48;1565119;91;20183;-70
2022/07/14 11:41:10;;;;;;;6.65;3.30;;;;;;;25.56;100.00;99116.72;1568556;90;21192;-71
2022/07/14 11:43:38;;;;;;;6.17;3.00;;;;;;;25.64;100.00;99151.23;1565461;92;21118;-69
2022/07/14 11:46:11;;;;;;;10.18;3.10;;;;;;;25.31;100.00;99309.52;1545521;92;21102;-68